Terminal Aerodrome Forecast
Issued by NWS Charleston, WV

Current Version | Previous Version | Graphics & Text | Print | Product List | Glossary On
Versions: 1 2 3 4 5 6 7 8 9 10 11 12 13 14 15 16 17 18 19 20 21 22 23
000
FTUS41 KRLX 212300
TAFBKW
TAF
KBKW 212334Z 2200/2224 VRB03KT P6SM BKN035
     FM221500 26007KT 5SM -SHRA OVC030
     FM221900 26009KT P6SM BKN035
     FM222000 29011G17KT P6SM BKN045=

USA.gov is the U.S. government's official web portal to all federal, state and local government web resources and services.